<?xml version="1.0" encoding="UTF-8" standalone="no" ?>
<gpx xmlns="http://www.topografix.com/GPX/1/1" xmlns:xsi="http://www.w3.org/2001/XMLSchema-instance" xsi:schemaLocation="http://www.topografix.com/GPX/1/1 http://www.topografix.com/GPX/1/1/gpx.xsd" version="1.1" creator="VisuGPX - https://www.visugpx.com">
  <metadata>
    <name>La Rando Gadoue</name>
    <desc><![CDATA[Rando Gadoue du 21 novembre 2021
Circuit de 10 km
Plus d'infos sur www.sentierslangeaisiens.fr]]></desc>
  </metadata>
  <trk>
    <name><![CDATA[12083813-gadoue 10]]></name>
    <extensions>
      <line xmlns="http://www.topografix.com/GPX/gpx_style/0/2">
        <color>0000FF</color>
        <width>4</width>
      </line>
    </extensions>
    <trkseg>
      <trkpt lat="47.32934" lon="0.41893">
        <ele>39.9</ele>
      </trkpt>
      <trkpt lat="47.32862" lon="0.41889">
        <ele>39</ele>
        <time>2020-09-23T15:46:31Z</time>
      </trkpt>
      <trkpt lat="47.32801" lon="0.41875">
        <ele>39</ele>
        <time>2020-09-23T15:47:36Z</time>
      </trkpt>
      <trkpt lat="47.32765" lon="0.4184">
        <ele>39</ele>
        <time>2020-09-23T15:49:26Z</time>
      </trkpt>
      <trkpt lat="47.32732" lon="0.41785">
        <ele>39</ele>
        <time>2020-09-23T15:51:09Z</time>
      </trkpt>
      <trkpt lat="47.32709" lon="0.41734">
        <ele>39</ele>
        <time>2020-09-23T15:52:27Z</time>
      </trkpt>
      <trkpt lat="47.32666" lon="0.41718">
        <ele>39.1</ele>
        <time>2020-09-23T15:53:52Z</time>
      </trkpt>
      <trkpt lat="47.3267" lon="0.41659">
        <ele>39</ele>
        <time>2020-09-23T15:54:48Z</time>
      </trkpt>
      <trkpt lat="47.32641" lon="0.41607">
        <ele>39</ele>
        <time>2020-09-23T15:55:15Z</time>
      </trkpt>
      <trkpt lat="47.32621" lon="0.41558">
        <ele>39.1</ele>
        <time>2020-09-23T15:56:22Z</time>
      </trkpt>
      <trkpt lat="47.32596" lon="0.41499">
        <ele>39.5</ele>
        <time>2020-09-23T15:57:08Z</time>
      </trkpt>
      <trkpt lat="47.32582" lon="0.41438">
        <ele>39.2</ele>
        <time>2020-09-23T15:57:59Z</time>
      </trkpt>
      <trkpt lat="47.32576" lon="0.41384">
        <ele>42</ele>
        <time>2020-09-23T15:58:53Z</time>
      </trkpt>
      <trkpt lat="47.32427" lon="0.40959">
        <ele>42</ele>
        <time>2020-09-23T16:06:26Z</time>
      </trkpt>
      <trkpt lat="47.32404" lon="0.40931">
        <ele>41.5</ele>
      </trkpt>
      <trkpt lat="47.32349" lon="0.40771">
        <ele>41</ele>
        <time>2020-09-23T16:09:59Z</time>
      </trkpt>
      <trkpt lat="47.32327" lon="0.40712">
        <ele>42</ele>
        <time>2020-09-23T16:11:00Z</time>
      </trkpt>
      <trkpt lat="47.32315" lon="0.40697">
        <ele>42</ele>
        <time>2020-09-23T16:11:21Z</time>
      </trkpt>
      <trkpt lat="47.323" lon="0.40668">
        <ele>42</ele>
        <time>2020-09-23T16:11:54Z</time>
      </trkpt>
      <trkpt lat="47.32293" lon="0.40632">
        <ele>42</ele>
        <time>2020-09-23T16:12:28Z</time>
      </trkpt>
      <trkpt lat="47.32285" lon="0.40592">
        <ele>42</ele>
        <time>2020-09-23T16:13:06Z</time>
      </trkpt>
      <trkpt lat="47.32275" lon="0.40566">
        <ele>42</ele>
        <time>2020-09-23T16:13:33Z</time>
      </trkpt>
      <trkpt lat="47.32244" lon="0.40549">
        <ele>41</ele>
        <time>2020-09-23T16:14:17Z</time>
      </trkpt>
      <trkpt lat="47.32221" lon="0.4057">
        <ele>41</ele>
        <time>2020-09-23T16:14:53Z</time>
      </trkpt>
      <trkpt lat="47.32184" lon="0.40604">
        <ele>42</ele>
        <time>2020-09-23T16:15:51Z</time>
      </trkpt>
      <trkpt lat="47.32171" lon="0.40603">
        <ele>42</ele>
        <time>2020-09-23T16:16:08Z</time>
      </trkpt>
      <trkpt lat="47.32139" lon="0.40524">
        <ele>39</ele>
        <time>2020-09-23T16:17:32Z</time>
      </trkpt>
      <trkpt lat="47.32118" lon="0.40463">
        <ele>38</ele>
        <time>2020-09-23T16:18:34Z</time>
      </trkpt>
      <trkpt lat="47.321" lon="0.40409">
        <ele>38</ele>
        <time>2020-09-23T16:19:28Z</time>
      </trkpt>
      <trkpt lat="47.32095" lon="0.40352">
        <ele>38</ele>
        <time>2020-09-23T16:20:20Z</time>
      </trkpt>
      <trkpt lat="47.32102" lon="0.40316">
        <ele>39</ele>
        <time>2020-09-23T16:20:54Z</time>
      </trkpt>
      <trkpt lat="47.32017" lon="0.40385">
        <ele>36</ele>
        <time>2020-09-23T16:23:03Z</time>
      </trkpt>
      <trkpt lat="47.31927" lon="0.40462">
        <ele>36</ele>
        <time>2020-09-23T16:25:22Z</time>
      </trkpt>
      <trkpt lat="47.31637" lon="0.407">
        <ele>40</ele>
        <time>2020-09-23T16:32:45Z</time>
      </trkpt>
      <trkpt lat="47.315" lon="0.40817">
        <ele>38</ele>
        <time>2020-09-23T16:36:16Z</time>
      </trkpt>
      <trkpt lat="47.31497" lon="0.40831">
        <ele>39</ele>
        <time>2020-09-23T16:36:30Z</time>
      </trkpt>
      <trkpt lat="47.31515" lon="0.40894">
        <ele>39</ele>
        <time>2020-09-23T16:37:31Z</time>
      </trkpt>
      <trkpt lat="47.31525" lon="0.40932">
        <ele>39</ele>
        <time>2020-09-23T16:38:08Z</time>
      </trkpt>
      <trkpt lat="47.31533" lon="0.40979">
        <ele>39</ele>
        <time>2020-09-23T16:38:52Z</time>
      </trkpt>
      <trkpt lat="47.31543" lon="0.41061">
        <ele>39</ele>
        <time>2020-09-23T16:40:08Z</time>
      </trkpt>
      <trkpt lat="47.31444" lon="0.41088">
        <ele>38</ele>
        <time>2020-09-23T16:42:22Z</time>
      </trkpt>
      <trkpt lat="47.3148" lon="0.41273">
        <ele>40</ele>
        <time>2020-09-23T16:45:16Z</time>
      </trkpt>
      <trkpt lat="47.31478" lon="0.41264">
        <ele>40</ele>
        <time>2020-09-23T16:45:25Z</time>
      </trkpt>
      <trkpt lat="47.31381" lon="0.41321">
        <ele>38</ele>
        <time>2020-09-23T16:47:44Z</time>
      </trkpt>
      <trkpt lat="47.31372" lon="0.41327">
        <ele>38</ele>
        <time>2020-09-23T16:47:57Z</time>
      </trkpt>
      <trkpt lat="47.31191" lon="0.41415">
        <ele>38</ele>
        <time>2020-09-23T16:52:11Z</time>
      </trkpt>
      <trkpt lat="47.31107" lon="0.41192">
        <ele>38</ele>
        <time>2020-09-23T16:56:02Z</time>
      </trkpt>
      <trkpt lat="47.31045" lon="0.41249">
        <ele>38</ele>
        <time>2020-09-23T16:57:40Z</time>
      </trkpt>
      <trkpt lat="47.30944" lon="0.41267">
        <ele>38</ele>
        <time>2020-09-23T16:59:56Z</time>
      </trkpt>
      <trkpt lat="47.30861" lon="0.41325">
        <ele>38</ele>
        <time>2020-09-23T17:01:58Z</time>
      </trkpt>
      <trkpt lat="47.30861" lon="0.41328">
        <ele>38</ele>
        <time>2020-09-23T17:02:01Z</time>
      </trkpt>
      <trkpt lat="47.30773" lon="0.41408">
        <ele>38</ele>
        <time>2020-09-23T17:04:19Z</time>
      </trkpt>
      <trkpt lat="47.30697" lon="0.41476">
        <ele>37</ele>
        <time>2020-09-23T17:06:17Z</time>
      </trkpt>
      <trkpt lat="47.30572" lon="0.41516">
        <ele>37</ele>
        <time>2020-09-23T17:09:08Z</time>
      </trkpt>
      <trkpt lat="47.30572" lon="0.41516">
        <ele>37</ele>
        <time>2020-09-23T17:09:08Z</time>
      </trkpt>
      <trkpt lat="47.30492" lon="0.41552">
        <ele>37</ele>
        <time>2020-09-23T17:11:00Z</time>
      </trkpt>
      <trkpt lat="47.30541" lon="0.41697">
        <ele>37</ele>
        <time>2020-09-23T17:13:26Z</time>
      </trkpt>
      <trkpt lat="47.30658" lon="0.41859">
        <ele>37</ele>
        <time>2020-09-23T17:17:00Z</time>
      </trkpt>
      <trkpt lat="47.30702" lon="0.42032">
        <ele>38</ele>
        <time>2020-09-23T17:19:48Z</time>
      </trkpt>
      <trkpt lat="47.30856" lon="0.42162">
        <ele>38</ele>
        <time>2020-09-23T17:23:44Z</time>
      </trkpt>
      <trkpt lat="47.30991" lon="0.42321">
        <ele>38</ele>
        <time>2020-09-23T17:27:35Z</time>
      </trkpt>
      <trkpt lat="47.31103" lon="0.42407">
        <ele>38</ele>
        <time>2020-09-23T17:30:23Z</time>
      </trkpt>
      <trkpt lat="47.31167" lon="0.4249">
        <ele>37</ele>
        <time>2020-09-23T17:32:17Z</time>
      </trkpt>
      <trkpt lat="47.31233" lon="0.42523">
        <ele>38</ele>
        <time>2020-09-23T17:33:50Z</time>
      </trkpt>
      <trkpt lat="47.31248" lon="0.42574">
        <ele>38</ele>
        <time>2020-09-23T17:34:40Z</time>
      </trkpt>
      <trkpt lat="47.31284" lon="0.42644">
        <ele>38</ele>
        <time>2020-09-23T17:36:00Z</time>
      </trkpt>
      <trkpt lat="47.31319" lon="0.42698">
        <ele>40</ele>
        <time>2020-09-23T17:37:08Z</time>
      </trkpt>
      <trkpt lat="47.31372" lon="0.42762">
        <ele>40</ele>
        <time>2020-09-23T17:38:39Z</time>
      </trkpt>
      <trkpt lat="47.31384" lon="0.42733">
        <ele>40</ele>
        <time>2020-09-23T17:39:10Z</time>
      </trkpt>
      <trkpt lat="47.31365" lon="0.42676">
        <ele>40</ele>
        <time>2020-09-23T17:40:07Z</time>
      </trkpt>
      <trkpt lat="47.31365" lon="0.42676">
        <ele>40</ele>
        <time>2020-09-23T17:40:07Z</time>
      </trkpt>
      <trkpt lat="47.31423" lon="0.42639">
        <ele>40</ele>
        <time>2020-09-23T17:41:32Z</time>
      </trkpt>
      <trkpt lat="47.31428" lon="0.42624">
        <ele>40</ele>
        <time>2020-09-23T17:41:47Z</time>
      </trkpt>
      <trkpt lat="47.31428" lon="0.42624">
        <ele>40</ele>
        <time>2020-09-23T17:41:47Z</time>
      </trkpt>
      <trkpt lat="47.31506" lon="0.42574">
        <ele>41</ele>
        <time>2020-09-23T17:43:40Z</time>
      </trkpt>
      <trkpt lat="47.31565" lon="0.42547">
        <ele>41</ele>
        <time>2020-09-23T17:45:03Z</time>
      </trkpt>
      <trkpt lat="47.31603" lon="0.42618">
        <ele>41</ele>
        <time>2020-09-23T17:46:24Z</time>
      </trkpt>
      <trkpt lat="47.31653" lon="0.42586">
        <ele>40</ele>
        <time>2020-09-23T17:47:37Z</time>
      </trkpt>
      <trkpt lat="47.31708" lon="0.42535">
        <ele>41</ele>
        <time>2020-09-23T17:49:04Z</time>
      </trkpt>
      <trkpt lat="47.31708" lon="0.42535">
        <ele>41</ele>
        <time>2020-09-23T17:49:04Z</time>
      </trkpt>
      <trkpt lat="47.3174" lon="0.42601">
        <ele>39</ele>
        <time>2020-09-23T17:50:17Z</time>
      </trkpt>
      <trkpt lat="47.31774" lon="0.4266">
        <ele>41</ele>
        <time>2020-09-23T17:51:27Z</time>
      </trkpt>
      <trkpt lat="47.31796" lon="0.42727">
        <ele>41</ele>
        <time>2020-09-23T17:52:35Z</time>
      </trkpt>
      <trkpt lat="47.31796" lon="0.42727">
        <ele>41</ele>
        <time>2020-09-23T17:52:35Z</time>
      </trkpt>
      <trkpt lat="47.31889" lon="0.42673">
        <ele>39</ele>
        <time>2020-09-23T17:54:48Z</time>
      </trkpt>
      <trkpt lat="47.31875" lon="0.42627">
        <ele>39</ele>
        <time>2020-09-23T17:55:34Z</time>
      </trkpt>
      <trkpt lat="47.3187" lon="0.42541">
        <ele>38</ele>
        <time>2020-09-23T17:56:52Z</time>
      </trkpt>
      <trkpt lat="47.31852" lon="0.42467">
        <ele>38</ele>
        <time>2020-09-23T17:58:03Z</time>
      </trkpt>
      <trkpt lat="47.31833" lon="0.4238">
        <ele>40</ele>
        <time>2020-09-23T17:59:26Z</time>
      </trkpt>
      <trkpt lat="47.31833" lon="0.42311">
        <ele>40</ele>
        <time>2020-09-23T18:00:28Z</time>
      </trkpt>
      <trkpt lat="47.31833" lon="0.42194">
        <ele>40</ele>
        <time>2020-09-23T18:02:14Z</time>
      </trkpt>
      <trkpt lat="47.31838" lon="0.42048">
        <ele>41</ele>
        <time>2020-09-23T18:04:26Z</time>
      </trkpt>
      <trkpt lat="47.31833" lon="0.41916">
        <ele>40</ele>
        <time>2020-09-23T18:06:26Z</time>
      </trkpt>
      <trkpt lat="47.31804" lon="0.41826">
        <ele>41</ele>
        <time>2020-09-23T18:07:56Z</time>
      </trkpt>
      <trkpt lat="47.31781" lon="0.41714">
        <ele>40</ele>
        <time>2020-09-23T18:09:42Z</time>
      </trkpt>
      <trkpt lat="47.31741" lon="0.41599">
        <ele>39</ele>
        <time>2020-09-23T18:11:39Z</time>
      </trkpt>
      <trkpt lat="47.31706" lon="0.41524">
        <ele>40</ele>
        <time>2020-09-23T18:13:01Z</time>
      </trkpt>
      <trkpt lat="47.31688" lon="0.41444">
        <ele>40</ele>
        <time>2020-09-23T18:14:17Z</time>
      </trkpt>
      <trkpt lat="47.31605" lon="0.41249">
        <ele>40</ele>
        <time>2020-09-23T18:17:46Z</time>
      </trkpt>
      <trkpt lat="47.31566" lon="0.41047">
        <ele>38</ele>
        <time>2020-09-23T18:20:56Z</time>
      </trkpt>
      <trkpt lat="47.315" lon="0.4082">
        <ele>39</ele>
        <time>2020-09-23T18:24:39Z</time>
      </trkpt>
      <trkpt lat="47.31664" lon="0.40683">
        <ele>42</ele>
        <time>2020-09-23T18:28:51Z</time>
      </trkpt>
      <trkpt lat="47.31664" lon="0.40683">
        <ele>42</ele>
        <time>2020-09-23T18:28:51Z</time>
      </trkpt>
      <trkpt lat="47.31848" lon="0.40532">
        <ele>38</ele>
        <time>2020-09-23T18:33:32Z</time>
      </trkpt>
      <trkpt lat="47.3212" lon="0.40304">
        <ele>40</ele>
        <time>2020-09-23T18:40:29Z</time>
      </trkpt>
      <trkpt lat="47.32137" lon="0.403">
        <ele>40</ele>
        <time>2020-09-23T18:40:52Z</time>
      </trkpt>
      <trkpt lat="47.32137" lon="0.403">
        <ele>40</ele>
        <time>2020-09-23T18:40:52Z</time>
      </trkpt>
      <trkpt lat="47.32163" lon="0.40394">
        <ele>41</ele>
        <time>2020-09-23T18:42:24Z</time>
      </trkpt>
      <trkpt lat="47.32189" lon="0.4049">
        <ele>41</ele>
        <time>2020-09-23T18:43:57Z</time>
      </trkpt>
      <trkpt lat="47.32222" lon="0.40569">
        <ele>41</ele>
        <time>2020-09-23T18:45:21Z</time>
      </trkpt>
      <trkpt lat="47.32247" lon="0.40548">
        <ele>41</ele>
        <time>2020-09-23T18:46:00Z</time>
      </trkpt>
      <trkpt lat="47.32278" lon="0.40566">
        <ele>42</ele>
        <time>2020-09-23T18:46:44Z</time>
      </trkpt>
      <trkpt lat="47.32278" lon="0.40566">
        <ele>42</ele>
        <time>2020-09-23T18:46:44Z</time>
      </trkpt>
      <trkpt lat="47.32293" lon="0.40617">
        <ele>42</ele>
        <time>2020-09-23T18:47:34Z</time>
      </trkpt>
      <trkpt lat="47.32299" lon="0.40667">
        <ele>42</ele>
        <time>2020-09-23T18:48:20Z</time>
      </trkpt>
      <trkpt lat="47.32299" lon="0.40669">
        <ele>42</ele>
        <time>2020-09-23T18:48:22Z</time>
      </trkpt>
      <trkpt lat="47.32324" lon="0.40703">
        <ele>42</ele>
        <time>2020-09-23T18:49:08Z</time>
      </trkpt>
      <trkpt lat="47.32349" lon="0.40769">
        <ele>41</ele>
        <time>2020-09-23T18:50:16Z</time>
      </trkpt>
      <trkpt lat="47.32398" lon="0.40908">
        <ele>42</ele>
        <time>2020-09-23T18:52:38Z</time>
      </trkpt>
      <trkpt lat="47.3241" lon="0.40938">
        <ele>41.7</ele>
      </trkpt>
      <trkpt lat="47.32418" lon="0.40951">
        <ele>42</ele>
      </trkpt>
      <trkpt lat="47.32433" lon="0.40943">
        <ele>41.4</ele>
      </trkpt>
      <trkpt lat="47.32489" lon="0.40873">
        <ele>40.6</ele>
      </trkpt>
      <trkpt lat="47.32498" lon="0.40899">
        <ele>40.4</ele>
      </trkpt>
      <trkpt lat="47.32522" lon="0.40913">
        <ele>39.5</ele>
      </trkpt>
      <trkpt lat="47.32559" lon="0.4106">
        <ele>39.9</ele>
      </trkpt>
      <trkpt lat="47.3257" lon="0.41129">
        <ele>39.2</ele>
      </trkpt>
      <trkpt lat="47.32586" lon="0.41159">
        <ele>39.8</ele>
      </trkpt>
      <trkpt lat="47.32592" lon="0.41189">
        <ele>39.4</ele>
      </trkpt>
      <trkpt lat="47.32607" lon="0.41268">
        <ele>39.1</ele>
      </trkpt>
      <trkpt lat="47.32624" lon="0.41292">
        <ele>39.2</ele>
      </trkpt>
      <trkpt lat="47.32635" lon="0.41326">
        <ele>39.1</ele>
      </trkpt>
      <trkpt lat="47.32628" lon="0.41368">
        <ele>41.4</ele>
      </trkpt>
      <trkpt lat="47.32657" lon="0.41379">
        <ele>39.5</ele>
      </trkpt>
      <trkpt lat="47.32674" lon="0.41389">
        <ele>39</ele>
      </trkpt>
      <trkpt lat="47.32691" lon="0.41412">
        <ele>39</ele>
      </trkpt>
      <trkpt lat="47.32728" lon="0.41413">
        <ele>39.2</ele>
      </trkpt>
      <trkpt lat="47.32746" lon="0.41419">
        <ele>39.8</ele>
      </trkpt>
      <trkpt lat="47.32763" lon="0.41437">
        <ele>39.5</ele>
      </trkpt>
      <trkpt lat="47.32793" lon="0.41465">
        <ele>39.7</ele>
      </trkpt>
      <trkpt lat="47.32808" lon="0.41501">
        <ele>39.1</ele>
        <time>2020-09-23T19:04:45Z</time>
      </trkpt>
      <trkpt lat="47.32851" lon="0.41603">
        <ele>39</ele>
      </trkpt>
      <trkpt lat="47.32924" lon="0.4174">
        <ele>39.8</ele>
      </trkpt>
      <trkpt lat="47.32956" lon="0.41808">
        <ele>39.8</ele>
      </trkpt>
      <trkpt lat="47.32953" lon="0.41855">
        <ele>39.8</ele>
        <time>2020-09-23T19:15:01Z</time>
      </trkpt>
    </trkseg>
  </trk>
</gpx>